sensor_id;sensor_type;location;lat;lon;timestamp;P1;durP1;ratioP1;P2;durP2;ratioP2
51949;SDS011;37974;53.218;6.640;2023-02-28T00:00:25;11.90;;;4.72;;
51949;SDS011;37974;53.218;6.640;2023-02-28T00:02:51;12.93;;;4.28;;
51949;SDS011;37974;53.218;6.640;2023-02-28T00:05:18;14.75;;;4.07;;
51949;SDS011;37974;53.218;6.640;2023-02-28T00:07:45;15.77;;;4.47;;
51949;SDS011;37974;53.218;6.640;2023-02-28T00:10:12;10.82;;;4.15;;
51949;SDS011;37974;53.218;6.640;2023-02-28T00:12:40;11.85;;;4.75;;
51949;SDS011;37974;53.218;6.640;2023-02-28T00:15:07;11.80;;;4.53;;
51949;SDS011;37974;53.218;6.640;2023-02-28T00:17:34;13.75;;;4.10;;
51949;SDS011;37974;53.218;6.640;2023-02-28T00:20:00;9.45;;;3.63;;
51949;SDS011;37974;53.218;6.640;2023-02-28T00:22:27;9.65;;;4.15;;
51949;SDS011;37974;53.218;6.640;2023-02-28T00:24:53;17.05;;;4.80;;
51949;SDS011;37974;53.218;6.640;2023-02-28T00:27:18;11.70;;;4.18;;
51949;SDS011;37974;53.218;6.640;2023-02-28T00:29:46;16.85;;;5.13;;
51949;SDS011;37974;53.218;6.640;2023-02-28T00:32:12;9.73;;;4.47;;
51949;SDS011;37974;53.218;6.640;2023-02-28T00:34:37;11.80;;;4.55;;
51949;SDS011;37974;53.218;6.640;2023-02-28T00:37:04;16.90;;;4.78;;
51949;SDS011;37974;53.218;6.640;2023-02-28T00:39:31;13.35;;;4.80;;
51949;SDS011;37974;53.218;6.640;2023-02-28T00:41:58;16.70;;;5.13;;
51949;SDS011;37974;53.218;6.640;2023-02-28T00:44:23;15.35;;;4.88;;
51949;SDS011;37974;53.218;6.640;2023-02-28T00:46:49;13.52;;;4.88;;
51949;SDS011;37974;53.218;6.640;2023-02-28T00:49:14;13.25;;;4.30;;
51949;SDS011;37974;53.218;6.640;2023-02-28T00:51:40;16.15;;;4.20;;
51949;SDS011;37974;53.218;6.640;2023-02-28T00:54:06;12.32;;;4.22;;
51949;SDS011;37974;53.218;6.640;2023-02-28T00:56:31;12.75;;;4.60;;
51949;SDS011;37974;53.218;6.640;2023-02-28T00:58:57;18.85;;;4.93;;
51949;SDS011;37974;53.218;6.640;2023-02-28T01:01:23;13.30;;;4.93;;
51949;SDS011;37974;53.218;6.640;2023-02-28T01:03:48;12.68;;;4.40;;
51949;SDS011;37974;53.218;6.640;2023-02-28T01:06:14;15.50;;;4.75;;
51949;SDS011;37974;53.218;6.640;2023-02-28T01:08:40;14.80;;;4.45;;
51949;SDS011;37974;53.218;6.640;2023-02-28T01:11:08;12.93;;;4.47;;
51949;SDS011;37974;53.218;6.640;2023-02-28T01:13:35;16.55;;;4.63;;
51949;SDS011;37974;53.218;6.640;2023-02-28T01:16:01;14.25;;;4.55;;
51949;SDS011;37974;53.218;6.640;2023-02-28T01:18:26;12.45;;;4.40;;
51949;SDS011;37974;53.218;6.640;2023-02-28T01:20:53;13.45;;;3.88;;
51949;SDS011;37974;53.218;6.640;2023-02-28T01:23:19;13.65;;;4.72;;
51949;SDS011;37974;53.218;6.640;2023-02-28T01:25:48;13.15;;;4.70;;
51949;SDS011;37974;53.218;6.640;2023-02-28T01:28:15;7.28;;;4.38;;
51949;SDS011;37974;53.218;6.640;2023-02-28T01:30:40;15.70;;;4.60;;
51949;SDS011;37974;53.218;6.640;2023-02-28T01:33:06;7.53;;;3.70;;
51949;SDS011;37974;53.218;6.640;2023-02-28T01:35:32;14.98;;;4.13;;
51949;SDS011;37974;53.218;6.640;2023-02-28T01:37:59;7.28;;;3.90;;
51949;SDS011;37974;53.218;6.640;2023-02-28T01:40:24;11.85;;;4.22;;
51949;SDS011;37974;53.218;6.640;2023-02-28T01:42:50;12.77;;;5.03;;
51949;SDS011;37974;53.218;6.640;2023-02-28T01:45:22;14.68;;;4.40;;
51949;SDS011;37974;53.218;6.640;2023-02-28T01:47:52;13.88;;;4.60;;
51949;SDS011;37974;53.218;6.640;2023-02-28T01:50:23;12.70;;;4.30;;
51949;SDS011;37974;53.218;6.640;2023-02-28T01:52:52;12.50;;;5.30;;
51949;SDS011;37974;53.218;6.640;2023-02-28T01:55:21;11.95;;;4.25;;
51949;SDS011;37974;53.218;6.640;2023-02-28T01:57:50;14.63;;;4.65;;
51949;SDS011;37974;53.218;6.640;2023-02-28T02:00:20;18.13;;;5.80;;
51949;SDS011;37974;53.218;6.640;2023-02-28T02:02:51;14.75;;;5.57;;
51949;SDS011;37974;53.218;6.640;2023-02-28T02:05:22;21.52;;;5.18;;
51949;SDS011;37974;53.218;6.640;2023-02-28T02:07:51;15.95;;;5.80;;
51949;SDS011;37974;53.218;6.640;2023-02-28T02:10:21;12.70;;;4.88;;
51949;SDS011;37974;53.218;6.640;2023-02-28T02:15:33;12.50;;;4.97;;
51949;SDS011;37974;53.218;6.640;2023-02-28T02:20:46;19.23;;;5.38;;
51949;SDS011;37974;53.218;6.640;2023-02-28T02:23:24;23.15;;;5.68;;
51949;SDS011;37974;53.218;6.640;2023-02-28T02:26:25;11.32;;;5.18;;
51949;SDS011;37974;53.218;6.640;2023-02-28T02:29:07;12.98;;;5.05;;
51949;SDS011;37974;53.218;6.640;2023-02-28T02:31:51;19.35;;;6.10;;
51949;SDS011;37974;53.218;6.640;2023-02-28T02:42:31;13.13;;;5.93;;
51949;SDS011;37974;53.218;6.640;2023-02-28T02:45:04;15.68;;;5.80;;
51949;SDS011;37974;53.218;6.640;2023-02-28T02:47:35;17.35;;;6.78;;
51949;SDS011;37974;53.218;6.640;2023-02-28T02:50:04;16.13;;;6.22;;
51949;SDS011;37974;53.218;6.640;2023-02-28T02:52:38;15.85;;;6.88;;
51949;SDS011;37974;53.218;6.640;2023-02-28T02:55:09;19.58;;;6.40;;
51949;SDS011;37974;53.218;6.640;2023-02-28T02:57:59;20.27;;;7.35;;
51949;SDS011;37974;53.218;6.640;2023-02-28T03:00:28;21.95;;;7.40;;
51949;SDS011;37974;53.218;6.640;2023-02-28T03:02:59;19.98;;;7.22;;
51949;SDS011;37974;53.218;6.640;2023-02-28T03:05:28;12.40;;;6.97;;
51949;SDS011;37974;53.218;6.640;2023-02-28T03:07:59;15.38;;;8.40;;
51949;SDS011;37974;53.218;6.640;2023-02-28T03:10:29;17.75;;;10.02;;
51949;SDS011;37974;53.218;6.640;2023-02-28T03:13:20;20.23;;;10.88;;
51949;SDS011;37974;53.218;6.640;2023-02-28T03:21:14;17.90;;;10.65;;
51949;SDS011;37974;53.218;6.640;2023-02-28T03:23:55;22.08;;;11.32;;
51949;SDS011;37974;53.218;6.640;2023-02-28T03:26:31;23.25;;;11.50;;
51949;SDS011;37974;53.218;6.640;2023-02-28T03:29:09;24.77;;;12.07;;
51949;SDS011;37974;53.218;6.640;2023-02-28T03:36:46;20.15;;;12.18;;
51949;SDS011;37974;53.218;6.640;2023-02-28T03:39:18;27.75;;;12.85;;
51949;SDS011;37974;53.218;6.640;2023-02-28T03:41:51;22.92;;;12.20;;
51949;SDS011;37974;53.218;6.640;2023-02-28T03:44:30;27.63;;;11.90;;
51949;SDS011;37974;53.218;6.640;2023-02-28T03:47:02;28.40;;;12.57;;
51949;SDS011;37974;53.218;6.640;2023-02-28T03:49:35;21.83;;;10.15;;
51949;SDS011;37974;53.218;6.640;2023-02-28T03:52:11;26.17;;;11.00;;
51949;SDS011;37974;53.218;6.640;2023-02-28T03:54:39;26.55;;;12.10;;
51949;SDS011;37974;53.218;6.640;2023-02-28T03:57:12;22.45;;;11.32;;
51949;SDS011;37974;53.218;6.640;2023-02-28T03:59:47;20.50;;;11.02;;
51949;SDS011;37974;53.218;6.640;2023-02-28T04:02:19;22.67;;;10.82;;
51949;SDS011;37974;53.218;6.640;2023-02-28T04:04:45;28.58;;;12.90;;
51949;SDS011;37974;53.218;6.640;2023-02-28T04:07:13;26.40;;;11.27;;
51949;SDS011;37974;53.218;6.640;2023-02-28T04:09:40;21.85;;;10.65;;
51949;SDS011;37974;53.218;6.640;2023-02-28T04:12:06;15.90;;;9.15;;
51949;SDS011;37974;53.218;6.640;2023-02-28T04:14:32;19.92;;;11.05;;
51949;SDS011;37974;53.218;6.640;2023-02-28T04:16:58;24.70;;;12.18;;
51949;SDS011;37974;53.218;6.640;2023-02-28T04:19:23;22.75;;;10.80;;
51949;SDS011;37974;53.218;6.640;2023-02-28T04:21:50;18.23;;;10.73;;
51949;SDS011;37974;53.218;6.640;2023-02-28T04:24:18;21.67;;;10.75;;
51949;SDS011;37974;53.218;6.640;2023-02-28T04:27:07;18.10;;;9.57;;
51949;SDS011;37974;53.218;6.640;2023-02-28T04:29:55;18.67;;;10.50;;
51949;SDS011;37974;53.218;6.640;2023-02-28T04:32:21;18.13;;;9.80;;
51949;SDS011;37974;53.218;6.640;2023-02-28T04:34:56;17.33;;;9.75;;
51949;SDS011;37974;53.218;6.640;2023-02-28T04:37:24;16.45;;;9.77;;
51949;SDS011;37974;53.218;6.640;2023-02-28T04:40:14;15.13;;;8.85;;
51949;SDS011;37974;53.218;6.640;2023-02-28T04:42:40;13.75;;;8.00;;
51949;SDS011;37974;53.218;6.640;2023-02-28T04:45:06;11.77;;;8.10;;
51949;SDS011;37974;53.218;6.640;2023-02-28T04:47:35;15.65;;;8.00;;
51949;SDS011;37974;53.218;6.640;2023-02-28T04:50:01;12.50;;;7.63;;
51949;SDS011;37974;53.218;6.640;2023-02-28T04:52:27;11.68;;;7.25;;
51949;SDS011;37974;53.218;6.640;2023-02-28T04:54:53;10.10;;;6.85;;
51949;SDS011;37974;53.218;6.640;2023-02-28T04:57:18;15.65;;;7.85;;
51949;SDS011;37974;53.218;6.640;2023-02-28T04:59:44;11.23;;;7.05;;
51949;SDS011;37974;53.218;6.640;2023-02-28T05:02:10;12.60;;;7.00;;
51949;SDS011;37974;53.218;6.640;2023-02-28T05:04:35;13.20;;;7.75;;
51949;SDS011;37974;53.218;6.640;2023-02-28T05:07:02;13.82;;;7.10;;
51949;SDS011;37974;53.218;6.640;2023-02-28T05:09:35;14.48;;;7.63;;
51949;SDS011;37974;53.218;6.640;2023-02-28T05:12:01;13.38;;;7.30;;
51949;SDS011;37974;53.218;6.640;2023-02-28T05:14:28;14.07;;;7.45;;
51949;SDS011;37974;53.218;6.640;2023-02-28T05:16:54;13.30;;;7.35;;
51949;SDS011;37974;53.218;6.640;2023-02-28T05:19:30;14.77;;;7.72;;
51949;SDS011;37974;53.218;6.640;2023-02-28T05:21:56;15.20;;;7.47;;
51949;SDS011;37974;53.218;6.640;2023-02-28T05:24:22;13.88;;;7.43;;
51949;SDS011;37974;53.218;6.640;2023-02-28T05:26:49;13.52;;;7.75;;
51949;SDS011;37974;53.218;6.640;2023-02-28T05:29:17;14.85;;;8.23;;
51949;SDS011;37974;53.218;6.640;2023-02-28T05:31:45;15.68;;;8.63;;
51949;SDS011;37974;53.218;6.640;2023-02-28T05:34:11;14.73;;;7.82;;
51949;SDS011;37974;53.218;6.640;2023-02-28T05:36:37;15.88;;;8.55;;
51949;SDS011;37974;53.218;6.640;2023-02-28T05:39:12;14.20;;;7.72;;
51949;SDS011;37974;53.218;6.640;2023-02-28T05:41:39;15.60;;;9.40;;
51949;SDS011;37974;53.218;6.640;2023-02-28T05:44:06;14.02;;;8.75;;
51949;SDS011;37974;53.218;6.640;2023-02-28T05:46:34;19.92;;;10.13;;
51949;SDS011;37974;53.218;6.640;2023-02-28T05:49:00;17.27;;;10.43;;
51949;SDS011;37974;53.218;6.640;2023-02-28T05:51:26;19.98;;;10.27;;
51949;SDS011;37974;53.218;6.640;2023-02-28T05:53:52;21.95;;;11.57;;
51949;SDS011;37974;53.218;6.640;2023-02-28T05:56:17;19.58;;;11.38;;
51949;SDS011;37974;53.218;6.640;2023-02-28T05:58:43;19.65;;;10.50;;
51949;SDS011;37974;53.218;6.640;2023-02-28T06:01:19;16.92;;;10.60;;
51949;SDS011;37974;53.218;6.640;2023-02-28T06:04:06;19.33;;;11.35;;
51949;SDS011;37974;53.218;6.640;2023-02-28T06:06:33;21.65;;;12.10;;
51949;SDS011;37974;53.218;6.640;2023-02-28T06:08:59;16.67;;;11.20;;
51949;SDS011;37974;53.218;6.640;2023-02-28T06:11:26;22.33;;;12.48;;
51949;SDS011;37974;53.218;6.640;2023-02-28T06:13:56;22.85;;;12.40;;
51949;SDS011;37974;53.218;6.640;2023-02-28T06:16:24;24.17;;;12.55;;
51949;SDS011;37974;53.218;6.640;2023-02-28T06:18:51;23.83;;;13.48;;
51949;SDS011;37974;53.218;6.640;2023-02-28T06:21:17;20.95;;;12.70;;
51949;SDS011;37974;53.218;6.640;2023-02-28T06:23:44;19.83;;;11.82;;
51949;SDS011;37974;53.218;6.640;2023-02-28T06:26:10;21.90;;;12.80;;
51949;SDS011;37974;53.218;6.640;2023-02-28T06:28:36;23.20;;;13.55;;
51949;SDS011;37974;53.218;6.640;2023-02-28T06:31:05;23.30;;;13.55;;
51949;SDS011;37974;53.218;6.640;2023-02-28T06:33:32;21.98;;;13.05;;
51949;SDS011;37974;53.218;6.640;2023-02-28T06:35:58;24.98;;;13.52;;
51949;SDS011;37974;53.218;6.640;2023-02-28T06:38:24;26.42;;;14.05;;
51949;SDS011;37974;53.218;6.640;2023-02-28T06:41:10;24.20;;;13.85;;
51949;SDS011;37974;53.218;6.640;2023-02-28T06:43:38;27.33;;;15.35;;
51949;SDS011;37974;53.218;6.640;2023-02-28T06:46:07;25.23;;;13.60;;
51949;SDS011;37974;53.218;6.640;2023-02-28T06:48:35;22.30;;;13.35;;
51949;SDS011;37974;53.218;6.640;2023-02-28T06:51:02;20.67;;;13.45;;
51949;SDS011;37974;53.218;6.640;2023-02-28T06:53:31;22.45;;;13.27;;
51949;SDS011;37974;53.218;6.640;2023-02-28T06:56:04;23.73;;;13.40;;
51949;SDS011;37974;53.218;6.640;2023-02-28T06:58:31;22.52;;;13.32;;
51949;SDS011;37974;53.218;6.640;2023-02-28T07:00:57;23.48;;;13.23;;
51949;SDS011;37974;53.218;6.640;2023-02-28T07:03:23;25.13;;;12.93;;
51949;SDS011;37974;53.218;6.640;2023-02-28T07:05:49;20.95;;;13.30;;
51949;SDS011;37974;53.218;6.640;2023-02-28T07:08:14;22.60;;;12.68;;
51949;SDS011;37974;53.218;6.640;2023-02-28T07:10:40;17.92;;;12.10;;
51949;SDS011;37974;53.218;6.640;2023-02-28T07:13:06;22.85;;;13.45;;
51949;SDS011;37974;53.218;6.640;2023-02-28T07:15:33;21.77;;;12.68;;
51949;SDS011;37974;53.218;6.640;2023-02-28T07:18:00;23.05;;;13.27;;
51949;SDS011;37974;53.218;6.640;2023-02-28T07:20:35;26.60;;;13.52;;
51949;SDS011;37974;53.218;6.640;2023-02-28T07:23:00;28.35;;;14.32;;
51949;SDS011;37974;53.218;6.640;2023-02-28T07:25:27;27.40;;;13.02;;
51949;SDS011;37974;53.218;6.640;2023-02-28T07:27:54;26.30;;;16.02;;
51949;SDS011;37974;53.218;6.640;2023-02-28T07:30:21;25.70;;;15.93;;
51949;SDS011;37974;53.218;6.640;2023-02-28T07:32:47;29.15;;;18.08;;
51949;SDS011;37974;53.218;6.640;2023-02-28T07:35:13;32.10;;;16.23;;
51949;SDS011;37974;53.218;6.640;2023-02-28T07:37:40;24.88;;;15.25;;
51949;SDS011;37974;53.218;6.640;2023-02-28T07:40:08;23.13;;;14.15;;
51949;SDS011;37974;53.218;6.640;2023-02-28T07:42:36;29.17;;;14.20;;
51949;SDS011;37974;53.218;6.640;2023-02-28T07:45:03;23.25;;;14.13;;
51949;SDS011;37974;53.218;6.640;2023-02-28T07:47:30;26.30;;;14.60;;
51949;SDS011;37974;53.218;6.640;2023-02-28T07:49:56;26.17;;;15.13;;
51949;SDS011;37974;53.218;6.640;2023-02-28T07:52:22;22.15;;;14.25;;
51949;SDS011;37974;53.218;6.640;2023-02-28T07:54:49;22.30;;;13.93;;
51949;SDS011;37974;53.218;6.640;2023-02-28T07:57:16;24.98;;;14.32;;
51949;SDS011;37974;53.218;6.640;2023-02-28T07:59:42;26.92;;;15.50;;
51949;SDS011;37974;53.218;6.640;2023-02-28T08:02:11;21.73;;;12.95;;
51949;SDS011;37974;53.218;6.640;2023-02-28T08:04:39;20.70;;;12.95;;
51949;SDS011;37974;53.218;6.640;2023-02-28T08:07:05;27.25;;;14.95;;
51949;SDS011;37974;53.218;6.640;2023-02-28T08:09:31;23.20;;;14.48;;
51949;SDS011;37974;53.218;6.640;2023-02-28T08:11:59;23.90;;;14.15;;
51949;SDS011;37974;53.218;6.640;2023-02-28T08:14:25;20.83;;;14.00;;
51949;SDS011;37974;53.218;6.640;2023-02-28T08:16:51;23.73;;;14.23;;
51949;SDS011;37974;53.218;6.640;2023-02-28T08:19:17;20.67;;;13.32;;
51949;SDS011;37974;53.218;6.640;2023-02-28T08:21:42;20.05;;;13.38;;
51949;SDS011;37974;53.218;6.640;2023-02-28T08:24:08;24.27;;;15.43;;
51949;SDS011;37974;53.218;6.640;2023-02-28T08:26:37;25.70;;;13.70;;
51949;SDS011;37974;53.218;6.640;2023-02-28T08:29:03;23.92;;;14.85;;
51949;SDS011;37974;53.218;6.640;2023-02-28T08:31:34;22.55;;;13.50;;
51949;SDS011;37974;53.218;6.640;2023-02-28T08:34:04;24.20;;;13.38;;
51949;SDS011;37974;53.218;6.640;2023-02-28T08:36:32;29.75;;;15.68;;
51949;SDS011;37974;53.218;6.640;2023-02-28T08:39:01;27.75;;;17.85;;
51949;SDS011;37974;53.218;6.640;2023-02-28T08:41:30;19.73;;;13.73;;
51949;SDS011;37974;53.218;6.640;2023-02-28T08:43:58;20.63;;;12.93;;
51949;SDS011;37974;53.218;6.640;2023-02-28T08:46:26;18.00;;;12.80;;
51949;SDS011;37974;53.218;6.640;2023-02-28T08:51:44;20.77;;;12.55;;
51949;SDS011;37974;53.218;6.640;2023-02-28T08:54:10;19.35;;;13.15;;
51949;SDS011;37974;53.218;6.640;2023-02-28T08:56:37;22.20;;;12.85;;
51949;SDS011;37974;53.218;6.640;2023-02-28T08:59:04;20.30;;;12.32;;
51949;SDS011;37974;53.218;6.640;2023-02-28T09:01:29;21.63;;;12.85;;
51949;SDS011;37974;53.218;6.640;2023-02-28T09:03:57;20.80;;;13.18;;
51949;SDS011;37974;53.218;6.640;2023-02-28T09:06:24;21.80;;;12.90;;
51949;SDS011;37974;53.218;6.640;2023-02-28T09:08:51;21.52;;;12.70;;
51949;SDS011;37974;53.218;6.640;2023-02-28T09:11:17;17.63;;;12.45;;
51949;SDS011;37974;53.218;6.640;2023-02-28T09:13:44;22.88;;;13.52;;
51949;SDS011;37974;53.218;6.640;2023-02-28T09:16:12;21.35;;;13.50;;
51949;SDS011;37974;53.218;6.640;2023-02-28T09:18:40;20.35;;;13.95;;
51949;SDS011;37974;53.218;6.640;2023-02-28T09:21:06;20.95;;;13.30;;
51949;SDS011;37974;53.218;6.640;2023-02-28T09:23:34;17.00;;;12.43;;
51949;SDS011;37974;53.218;6.640;2023-02-28T09:26:14;19.30;;;13.65;;
51949;SDS011;37974;53.218;6.640;2023-02-28T09:31:13;21.92;;;13.27;;
51949;SDS011;37974;53.218;6.640;2023-02-28T09:33:43;22.00;;;13.57;;
51949;SDS011;37974;53.218;6.640;2023-02-28T09:36:09;20.58;;;15.43;;
51949;SDS011;37974;53.218;6.640;2023-02-28T09:38:41;29.75;;;18.58;;
51949;SDS011;37974;53.218;6.640;2023-02-28T09:41:11;28.38;;;17.52;;
51949;SDS011;37974;53.218;6.640;2023-02-28T09:44:00;26.65;;;17.08;;
51949;SDS011;37974;53.218;6.640;2023-02-28T09:49:05;31.67;;;19.30;;
51949;SDS011;37974;53.218;6.640;2023-02-28T09:56:49;27.75;;;17.27;;
51949;SDS011;37974;53.218;6.640;2023-02-28T10:02:15;21.80;;;15.02;;
51949;SDS011;37974;53.218;6.640;2023-02-28T10:10:06;21.25;;;13.05;;
51949;SDS011;37974;53.218;6.640;2023-02-28T10:12:40;18.15;;;13.60;;
51949;SDS011;37974;53.218;6.640;2023-02-28T10:15:13;22.55;;;12.77;;
51949;SDS011;37974;53.218;6.640;2023-02-28T10:17:41;24.75;;;14.65;;
51949;SDS011;37974;53.218;6.640;2023-02-28T10:22:48;18.80;;;11.30;;
51949;SDS011;37974;53.218;6.640;2023-02-28T10:25:23;15.07;;;11.52;;
51949;SDS011;37974;53.218;6.640;2023-02-28T10:27:53;20.52;;;11.80;;
51949;SDS011;37974;53.218;6.640;2023-02-28T10:30:24;20.38;;;13.50;;
51949;SDS011;37974;53.218;6.640;2023-02-28T10:32:56;18.42;;;12.60;;
51949;SDS011;37974;53.218;6.640;2023-02-28T10:35:24;19.00;;;13.27;;
51949;SDS011;37974;53.218;6.640;2023-02-28T10:37:54;17.77;;;12.15;;
51949;SDS011;37974;53.218;6.640;2023-02-28T10:40:39;16.08;;;10.15;;
51949;SDS011;37974;53.218;6.640;2023-02-28T10:45:53;19.38;;;11.80;;
51949;SDS011;37974;53.218;6.640;2023-02-28T10:48:32;18.20;;;11.75;;
51949;SDS011;37974;53.218;6.640;2023-02-28T10:51:00;13.90;;;8.65;;
51949;SDS011;37974;53.218;6.640;2023-02-28T10:58:46;12.77;;;8.05;;
51949;SDS011;37974;53.218;6.640;2023-02-28T11:01:21;15.50;;;7.85;;
51949;SDS011;37974;53.218;6.640;2023-02-28T11:03:49;12.23;;;7.63;;
51949;SDS011;37974;53.218;6.640;2023-02-28T11:06:21;11.30;;;6.88;;
51949;SDS011;37974;53.218;6.640;2023-02-28T11:08:55;12.05;;;6.95;;
51949;SDS011;37974;53.218;6.640;2023-02-28T11:11:25;12.00;;;7.57;;
51949;SDS011;37974;53.218;6.640;2023-02-28T11:13:54;11.13;;;6.75;;
51949;SDS011;37974;53.218;6.640;2023-02-28T11:16:22;10.65;;;6.30;;
51949;SDS011;37974;53.218;6.640;2023-02-28T11:18:59;11.27;;;5.88;;
51949;SDS011;37974;53.218;6.640;2023-02-28T11:21:27;10.13;;;5.25;;
51949;SDS011;37974;53.218;6.640;2023-02-28T11:23:58;11.60;;;5.30;;
51949;SDS011;37974;53.218;6.640;2023-02-28T11:26:36;10.00;;;5.10;;
51949;SDS011;37974;53.218;6.640;2023-02-28T11:29:10;9.27;;;5.15;;
51949;SDS011;37974;53.218;6.640;2023-02-28T11:32:04;11.55;;;4.90;;
51949;SDS011;37974;53.218;6.640;2023-02-28T11:34:59;8.82;;;4.88;;
51949;SDS011;37974;53.218;6.640;2023-02-28T11:37:50;10.43;;;4.80;;
51949;SDS011;37974;53.218;6.640;2023-02-28T11:40:25;10.13;;;6.00;;
51949;SDS011;37974;53.218;6.640;2023-02-28T11:43:27;10.73;;;6.10;;
51949;SDS011;37974;53.218;6.640;2023-02-28T11:46:14;10.65;;;5.60;;
51949;SDS011;37974;53.218;6.640;2023-02-28T11:49:15;9.75;;;5.40;;
51949;SDS011;37974;53.218;6.640;2023-02-28T11:51:53;8.52;;;5.85;;
51949;SDS011;37974;53.218;6.640;2023-02-28T11:57:16;8.73;;;5.50;;
51949;SDS011;37974;53.218;6.640;2023-02-28T12:00:00;9.88;;;5.50;;
51949;SDS011;37974;53.218;6.640;2023-02-28T12:02:44;8.10;;;5.05;;
51949;SDS011;37974;53.218;6.640;2023-02-28T12:05:29;11.95;;;5.20;;
51949;SDS011;37974;53.218;6.640;2023-02-28T12:19:06;9.63;;;5.55;;
51949;SDS011;37974;53.218;6.640;2023-02-28T12:21:52;8.60;;;5.70;;
51949;SDS011;37974;53.218;6.640;2023-02-28T12:27:19;9.23;;;5.68;;
51949;SDS011;37974;53.218;6.640;2023-02-28T12:29:54;8.07;;;5.00;;
51949;SDS011;37974;53.218;6.640;2023-02-28T12:32:45;8.32;;;4.93;;
51949;SDS011;37974;53.218;6.640;2023-02-28T12:35:31;9.65;;;5.47;;
51949;SDS011;37974;53.218;6.640;2023-02-28T12:38:05;12.13;;;5.63;;
51949;SDS011;37974;53.218;6.640;2023-02-28T12:40:42;10.02;;;5.38;;
51949;SDS011;37974;53.218;6.640;2023-02-28T12:43:12;9.10;;;5.18;;
51949;SDS011;37974;53.218;6.640;2023-02-28T12:45:51;10.35;;;5.22;;
51949;SDS011;37974;53.218;6.640;2023-02-28T12:48:24;9.70;;;5.07;;
51949;SDS011;37974;53.218;6.640;2023-02-28T12:50:51;9.30;;;5.68;;
51949;SDS011;37974;53.218;6.640;2023-02-28T12:53:20;10.43;;;5.07;;
51949;SDS011;37974;53.218;6.640;2023-02-28T12:55:51;9.68;;;5.72;;
51949;SDS011;37974;53.218;6.640;2023-02-28T12:58:41;10.23;;;5.55;;
51949;SDS011;37974;53.218;6.640;2023-02-28T13:01:33;10.75;;;5.50;;
51949;SDS011;37974;53.218;6.640;2023-02-28T13:07:25;10.32;;;5.30;;
51949;SDS011;37974;53.218;6.640;2023-02-28T13:10:04;22.58;;;13.65;;
51949;SDS011;37974;53.218;6.640;2023-02-28T13:12:35;11.73;;;4.85;;
51949;SDS011;37974;53.218;6.640;2023-02-28T13:17:38;11.85;;;5.45;;
51949;SDS011;37974;53.218;6.640;2023-02-28T13:20:18;9.38;;;5.50;;
51949;SDS011;37974;53.218;6.640;2023-02-28T13:22:48;9.05;;;5.07;;
51949;SDS011;37974;53.218;6.640;2023-02-28T13:27:49;9.30;;;5.85;;
51949;SDS011;37974;53.218;6.640;2023-02-28T13:33:21;10.55;;;4.50;;
51949;SDS011;37974;53.218;6.640;2023-02-28T13:36:01;7.60;;;4.70;;
51949;SDS011;37974;53.218;6.640;2023-02-28T13:43:59;10.23;;;5.60;;
51949;SDS011;37974;53.218;6.640;2023-02-28T13:49:23;10.98;;;6.28;;
51949;SDS011;37974;53.218;6.640;2023-02-28T13:52:07;11.05;;;5.70;;
51949;SDS011;37974;53.218;6.640;2023-02-28T14:00:17;9.25;;;5.47;;
51949;SDS011;37974;53.218;6.640;2023-02-28T14:03:14;9.93;;;5.65;;
51949;SDS011;37974;53.218;6.640;2023-02-28T14:08:57;9.30;;;6.38;;
51949;SDS011;37974;53.218;6.640;2023-02-28T14:11:30;8.93;;;5.85;;
51949;SDS011;37974;53.218;6.640;2023-02-28T14:13:58;11.73;;;6.57;;
51949;SDS011;37974;53.218;6.640;2023-02-28T14:16:27;10.48;;;5.57;;
51949;SDS011;37974;53.218;6.640;2023-02-28T14:19:09;12.60;;;6.40;;
51949;SDS011;37974;53.218;6.640;2023-02-28T14:21:46;10.10;;;6.25;;
51949;SDS011;37974;53.218;6.640;2023-02-28T14:34:53;10.48;;;6.13;;
51949;SDS011;37974;53.218;6.640;2023-02-28T14:37:28;10.75;;;6.18;;
51949;SDS011;37974;53.218;6.640;2023-02-28T14:39:58;13.23;;;6.55;;
51949;SDS011;37974;53.218;6.640;2023-02-28T14:42:36;9.15;;;5.97;;
51949;SDS011;37974;53.218;6.640;2023-02-28T14:45:16;11.10;;;6.47;;
51949;SDS011;37974;53.218;6.640;2023-02-28T14:47:45;11.65;;;6.90;;
51949;SDS011;37974;53.218;6.640;2023-02-28T14:50:20;10.68;;;6.80;;
51949;SDS011;37974;53.218;6.640;2023-02-28T14:52:51;13.38;;;6.28;;
51949;SDS011;37974;53.218;6.640;2023-02-28T14:55:18;9.75;;;5.57;;
51949;SDS011;37974;53.218;6.640;2023-02-28T14:57:52;11.80;;;6.45;;
51949;SDS011;37974;53.218;6.640;2023-02-28T15:02:49;41.45;;;8.38;;
51949;SDS011;37974;53.218;6.640;2023-02-28T15:05:19;15.73;;;5.80;;
51949;SDS011;37974;53.218;6.640;2023-02-28T15:07:59;10.57;;;6.03;;
51949;SDS011;37974;53.218;6.640;2023-02-28T15:10:29;9.73;;;5.97;;
51949;SDS011;37974;53.218;6.640;2023-02-28T15:13:00;14.50;;;6.40;;
51949;SDS011;37974;53.218;6.640;2023-02-28T15:15:30;20.80;;;6.95;;
51949;SDS011;37974;53.218;6.640;2023-02-28T15:18:05;8.05;;;5.63;;
51949;SDS011;37974;53.218;6.640;2023-02-28T15:20:33;10.77;;;5.82;;
51949;SDS011;37974;53.218;6.640;2023-02-28T15:23:00;15.23;;;6.30;;
51949;SDS011;37974;53.218;6.640;2023-02-28T15:25:27;30.50;;;8.65;;
51949;SDS011;37974;53.218;6.640;2023-02-28T15:27:53;13.57;;;6.63;;
51949;SDS011;37974;53.218;6.640;2023-02-28T15:33:06;11.17;;;6.47;;
51949;SDS011;37974;53.218;6.640;2023-02-28T15:35:43;10.35;;;6.10;;
51949;SDS011;37974;53.218;6.640;2023-02-28T15:38:24;11.23;;;6.40;;
51949;SDS011;37974;53.218;6.640;2023-02-28T15:40:54;11.07;;;5.97;;
51949;SDS011;37974;53.218;6.640;2023-02-28T15:45:54;13.02;;;7.00;;
51949;SDS011;37974;53.218;6.640;2023-02-28T15:48:25;10.60;;;6.00;;
51949;SDS011;37974;53.218;6.640;2023-02-28T15:50:55;12.13;;;6.53;;
51949;SDS011;37974;53.218;6.640;2023-02-28T15:53:28;12.13;;;6.25;;
51949;SDS011;37974;53.218;6.640;2023-02-28T15:55:59;16.02;;;8.02;;
51949;SDS011;37974;53.218;6.640;2023-02-28T15:58:27;13.93;;;6.90;;
51949;SDS011;37974;53.218;6.640;2023-02-28T16:01:01;11.38;;;6.28;;
51949;SDS011;37974;53.218;6.640;2023-02-28T16:03:37;12.38;;;6.50;;
51949;SDS011;37974;53.218;6.640;2023-02-28T16:08:42;16.45;;;6.88;;
51949;SDS011;37974;53.218;6.640;2023-02-28T16:11:08;10.27;;;5.82;;
51949;SDS011;37974;53.218;6.640;2023-02-28T16:13:35;12.68;;;6.75;;
51949;SDS011;37974;53.218;6.640;2023-02-28T16:16:01;11.13;;;6.40;;
51949;SDS011;37974;53.218;6.640;2023-02-28T16:18:27;14.82;;;6.95;;
51949;SDS011;37974;53.218;6.640;2023-02-28T16:20:53;13.23;;;6.55;;
51949;SDS011;37974;53.218;6.640;2023-02-28T16:23:19;12.82;;;6.20;;
51949;SDS011;37974;53.218;6.640;2023-02-28T16:25:51;10.27;;;6.55;;
51949;SDS011;37974;53.218;6.640;2023-02-28T16:28:18;10.57;;;6.75;;
51949;SDS011;37974;53.218;6.640;2023-02-28T16:30:51;12.07;;;6.50;;
51949;SDS011;37974;53.218;6.640;2023-02-28T16:33:20;15.52;;;6.72;;
51949;SDS011;37974;53.218;6.640;2023-02-28T16:35:46;9.40;;;6.43;;
51949;SDS011;37974;53.218;6.640;2023-02-28T16:38:12;11.23;;;6.60;;
51949;SDS011;37974;53.218;6.640;2023-02-28T16:40:38;10.13;;;6.93;;
51949;SDS011;37974;53.218;6.640;2023-02-28T16:43:05;11.40;;;6.82;;
51949;SDS011;37974;53.218;6.640;2023-02-28T16:45:38;13.52;;;6.88;;
51949;SDS011;37974;53.218;6.640;2023-02-28T16:48:04;9.90;;;6.88;;
51949;SDS011;37974;53.218;6.640;2023-02-28T16:50:30;12.57;;;7.00;;
51949;SDS011;37974;53.218;6.640;2023-02-28T16:52:57;12.00;;;7.13;;